sensor_id;sensor_type;location;lat;lon;timestamp;temperature;humidity
17954;DHT22;9102;53.548;9.926;2022-10-17T00:00:16;12.70;99.90
17954;DHT22;9102;53.548;9.926;2022-10-17T00:02:43;12.80;99.90
17954;DHT22;9102;53.548;9.926;2022-10-17T00:05:10;12.80;99.90
17954;DHT22;9102;53.548;9.926;2022-10-17T00:07:37;12.80;99.90
17954;DHT22;9102;53.548;9.926;2022-10-17T00:10:04;12.70;99.90
17954;DHT22;9102;53.548;9.926;2022-10-17T00:12:33;12.70;99.90
17954;DHT22;9102;53.548;9.926;2022-10-17T00:15:02;12.70;99.90
17954;DHT22;9102;53.548;9.926;2022-10-17T00:17:29;12.70;99.90
17954;DHT22;9102;53.548;9.926;2022-10-17T00:19:57;12.70;99.90
17954;DHT22;9102;53.548;9.926;2022-10-17T00:22:24;12.70;99.90
17954;DHT22;9102;53.548;9.926;2022-10-17T00:24:51;12.70;99.90
17954;DHT22;9102;53.548;9.926;2022-10-17T00:27:18;12.70;99.90
17954;DHT22;9102;53.548;9.926;2022-10-17T00:29:48;12.80;99.90
17954;DHT22;9102;53.548;9.926;2022-10-17T00:32:15;12.80;99.90
17954;DHT22;9102;53.548;9.926;2022-10-17T00:34:42;12.80;99.90
17954;DHT22;9102;53.548;9.926;2022-10-17T00:37:09;12.80;99.90
17954;DHT22;9102;53.548;9.926;2022-10-17T00:39:36;12.80;99.90
17954;DHT22;9102;53.548;9.926;2022-10-17T00:42:03;12.80;99.90
17954;DHT22;9102;53.548;9.926;2022-10-17T00:47:41;12.90;99.90
17954;DHT22;9102;53.548;9.926;2022-10-17T00:50:11;12.90;99.90
17954;DHT22;9102;53.548;9.926;2022-10-17T00:52:39;12.90;99.90
17954;DHT22;9102;53.548;9.926;2022-10-17T00:55:11;13.00;99.90
17954;DHT22;9102;53.548;9.926;2022-10-17T00:57:39;12.90;99.90
17954;DHT22;9102;53.548;9.926;2022-10-17T01:00:09;12.90;99.90
17954;DHT22;9102;53.548;9.926;2022-10-17T01:02:37;12.90;99.90
17954;DHT22;9102;53.548;9.926;2022-10-17T01:05:06;12.90;99.90
17954;DHT22;9102;53.548;9.926;2022-10-17T01:07:33;12.90;99.90
17954;DHT22;9102;53.548;9.926;2022-10-17T01:10:00;12.90;99.90
17954;DHT22;9102;53.548;9.926;2022-10-17T01:12:32;12.90;99.90
17954;DHT22;9102;53.548;9.926;2022-10-17T01:15:07;12.90;99.90
17954;DHT22;9102;53.548;9.926;2022-10-17T01:17:43;12.90;99.90
17954;DHT22;9102;53.548;9.926;2022-10-17T01:20:36;13.00;99.90
17954;DHT22;9102;53.548;9.926;2022-10-17T01:23:23;13.00;99.90
17954;DHT22;9102;53.548;9.926;2022-10-17T01:25:55;13.00;99.90
17954;DHT22;9102;53.548;9.926;2022-10-17T01:28:38;13.10;99.90
17954;DHT22;9102;53.548;9.926;2022-10-17T01:31:13;13.10;99.90
17954;DHT22;9102;53.548;9.926;2022-10-17T01:33:46;13.10;99.90
17954;DHT22;9102;53.548;9.926;2022-10-17T01:36:23;13.10;99.90
17954;DHT22;9102;53.548;9.926;2022-10-17T01:38:56;13.20;99.90
17954;DHT22;9102;53.548;9.926;2022-10-17T01:41:26;13.20;99.90
17954;DHT22;9102;53.548;9.926;2022-10-17T01:44:01;13.10;99.90
17954;DHT22;9102;53.548;9.926;2022-10-17T01:46:34;13.20;99.90
17954;DHT22;9102;53.548;9.926;2022-10-17T01:49:03;13.20;99.90
17954;DHT22;9102;53.548;9.926;2022-10-17T01:51:34;13.30;99.90
17954;DHT22;9102;53.548;9.926;2022-10-17T01:54:08;13.20;99.90
17954;DHT22;9102;53.548;9.926;2022-10-17T01:56:38;13.30;99.90
17954;DHT22;9102;53.548;9.926;2022-10-17T01:59:09;13.40;99.90
17954;DHT22;9102;53.548;9.926;2022-10-17T02:01:40;13.40;99.90
17954;DHT22;9102;53.548;9.926;2022-10-17T02:04:09;13.40;99.90
17954;DHT22;9102;53.548;9.926;2022-10-17T02:06:37;13.40;99.90
17954;DHT22;9102;53.548;9.926;2022-10-17T02:09:16;13.40;99.90
17954;DHT22;9102;53.548;9.926;2022-10-17T02:11:49;13.40;99.90
17954;DHT22;9102;53.548;9.926;2022-10-17T02:14:24;13.30;99.90
17954;DHT22;9102;53.548;9.926;2022-10-17T02:17:05;13.40;99.90
17954;DHT22;9102;53.548;9.926;2022-10-17T02:19:43;13.40;99.90
17954;DHT22;9102;53.548;9.926;2022-10-17T02:22:19;13.40;99.90
17954;DHT22;9102;53.548;9.926;2022-10-17T02:24:56;13.50;99.90
17954;DHT22;9102;53.548;9.926;2022-10-17T02:27:32;13.50;99.90
17954;DHT22;9102;53.548;9.926;2022-10-17T02:30:05;13.50;99.90
17954;DHT22;9102;53.548;9.926;2022-10-17T02:32:39;13.50;99.90
17954;DHT22;9102;53.548;9.926;2022-10-17T02:35:08;13.50;99.90
17954;DHT22;9102;53.548;9.926;2022-10-17T02:37:37;13.50;99.90
17954;DHT22;9102;53.548;9.926;2022-10-17T02:40:08;13.50;99.90
17954;DHT22;9102;53.548;9.926;2022-10-17T02:42:37;13.50;99.90
17954;DHT22;9102;53.548;9.926;2022-10-17T02:45:05;13.60;99.90
17954;DHT22;9102;53.548;9.926;2022-10-17T02:47:38;13.50;99.90
17954;DHT22;9102;53.548;9.926;2022-10-17T02:50:09;13.50;99.90
17954;DHT22;9102;53.548;9.926;2022-10-17T02:52:40;13.60;99.90
17954;DHT22;9102;53.548;9.926;2022-10-17T02:55:15;13.60;99.90
17954;DHT22;9102;53.548;9.926;2022-10-17T02:57:45;13.60;99.90
17954;DHT22;9102;53.548;9.926;2022-10-17T03:00:14;13.60;99.90
17954;DHT22;9102;53.548;9.926;2022-10-17T03:02:45;13.60;99.90
17954;DHT22;9102;53.548;9.926;2022-10-17T03:05:15;13.60;99.90
17954;DHT22;9102;53.548;9.926;2022-10-17T03:07:42;13.60;99.90
17954;DHT22;9102;53.548;9.926;2022-10-17T03:10:09;13.60;99.90
17954;DHT22;9102;53.548;9.926;2022-10-17T03:12:36;13.70;99.90
17954;DHT22;9102;53.548;9.926;2022-10-17T03:15:04;13.70;99.90
17954;DHT22;9102;53.548;9.926;2022-10-17T03:17:31;13.60;99.90
17954;DHT22;9102;53.548;9.926;2022-10-17T03:19:59;13.60;99.90
17954;DHT22;9102;53.548;9.926;2022-10-17T03:22:26;13.60;99.90
17954;DHT22;9102;53.548;9.926;2022-10-17T03:24:53;13.60;99.90
17954;DHT22;9102;53.548;9.926;2022-10-17T03:27:20;13.60;99.90
17954;DHT22;9102;53.548;9.926;2022-10-17T03:29:47;13.60;99.90
17954;DHT22;9102;53.548;9.926;2022-10-17T03:32:13;13.50;99.90
17954;DHT22;9102;53.548;9.926;2022-10-17T03:34:40;13.50;99.90
17954;DHT22;9102;53.548;9.926;2022-10-17T03:37:08;13.40;99.90
17954;DHT22;9102;53.548;9.926;2022-10-17T03:39:35;13.40;99.90
17954;DHT22;9102;53.548;9.926;2022-10-17T03:42:02;13.40;99.90
17954;DHT22;9102;53.548;9.926;2022-10-17T03:44:28;13.30;99.90
17954;DHT22;9102;53.548;9.926;2022-10-17T03:46:56;13.40;99.90
17954;DHT22;9102;53.548;9.926;2022-10-17T03:49:23;13.40;99.90
17954;DHT22;9102;53.548;9.926;2022-10-17T03:51:49;13.40;99.90
17954;DHT22;9102;53.548;9.926;2022-10-17T03:54:17;13.40;99.90
17954;DHT22;9102;53.548;9.926;2022-10-17T03:56:44;13.40;99.90
17954;DHT22;9102;53.548;9.926;2022-10-17T03:59:12;13.40;99.90
17954;DHT22;9102;53.548;9.926;2022-10-17T04:01:39;13.30;99.90
17954;DHT22;9102;53.548;9.926;2022-10-17T04:04:07;13.40;99.90
17954;DHT22;9102;53.548;9.926;2022-10-17T04:06:34;13.40;99.90
17954;DHT22;9102;53.548;9.926;2022-10-17T04:09:01;13.40;99.90
17954;DHT22;9102;53.548;9.926;2022-10-17T04:11:30;13.40;99.90
17954;DHT22;9102;53.548;9.926;2022-10-17T04:13:57;13.40;99.90
17954;DHT22;9102;53.548;9.926;2022-10-17T04:16:26;13.40;99.90
17954;DHT22;9102;53.548;9.926;2022-10-17T04:18:54;13.40;99.90
17954;DHT22;9102;53.548;9.926;2022-10-17T04:21:21;13.40;99.90
17954;DHT22;9102;53.548;9.926;2022-10-17T04:23:52;13.40;99.90
17954;DHT22;9102;53.548;9.926;2022-10-17T04:26:19;13.40;99.90
17954;DHT22;9102;53.548;9.926;2022-10-17T04:28:47;13.40;99.90
17954;DHT22;9102;53.548;9.926;2022-10-17T04:31:14;13.40;99.90
17954;DHT22;9102;53.548;9.926;2022-10-17T04:33:41;13.40;99.90
17954;DHT22;9102;53.548;9.926;2022-10-17T04:36:11;13.40;99.90
17954;DHT22;9102;53.548;9.926;2022-10-17T04:38:38;13.30;99.90
17954;DHT22;9102;53.548;9.926;2022-10-17T04:41:07;13.30;99.90
17954;DHT22;9102;53.548;9.926;2022-10-17T04:43:36;13.30;99.90
17954;DHT22;9102;53.548;9.926;2022-10-17T04:46:06;13.20;99.90
17954;DHT22;9102;53.548;9.926;2022-10-17T04:48:33;13.20;99.90
17954;DHT22;9102;53.548;9.926;2022-10-17T04:51:02;13.20;99.90
17954;DHT22;9102;53.548;9.926;2022-10-17T04:53:31;13.20;99.90
17954;DHT22;9102;53.548;9.926;2022-10-17T04:55:58;13.20;99.90
17954;DHT22;9102;53.548;9.926;2022-10-17T04:58:24;13.20;99.90
17954;DHT22;9102;53.548;9.926;2022-10-17T05:00:51;13.20;99.90
17954;DHT22;9102;53.548;9.926;2022-10-17T05:03:19;13.20;99.90
17954;DHT22;9102;53.548;9.926;2022-10-17T05:05:46;13.10;99.90
17954;DHT22;9102;53.548;9.926;2022-10-17T05:08:13;13.10;99.90
17954;DHT22;9102;53.548;9.926;2022-10-17T05:10:42;13.10;99.90
17954;DHT22;9102;53.548;9.926;2022-10-17T05:13:09;13.10;99.90
17954;DHT22;9102;53.548;9.926;2022-10-17T05:15:36;13.10;99.90
17954;DHT22;9102;53.548;9.926;2022-10-17T05:18:04;13.00;99.90
17954;DHT22;9102;53.548;9.926;2022-10-17T05:20:32;13.00;99.90
17954;DHT22;9102;53.548;9.926;2022-10-17T05:22:59;13.00;99.90
17954;DHT22;9102;53.548;9.926;2022-10-17T05:25:27;13.00;99.90
17954;DHT22;9102;53.548;9.926;2022-10-17T05:27:53;13.00;99.90
17954;DHT22;9102;53.548;9.926;2022-10-17T05:30:20;13.00;99.90
17954;DHT22;9102;53.548;9.926;2022-10-17T05:32:50;12.90;99.90
17954;DHT22;9102;53.548;9.926;2022-10-17T05:35:17;12.90;99.90
17954;DHT22;9102;53.548;9.926;2022-10-17T05:37:45;12.80;99.90
17954;DHT22;9102;53.548;9.926;2022-10-17T05:40:12;12.80;99.90
17954;DHT22;9102;53.548;9.926;2022-10-17T05:42:38;12.80;99.90
17954;DHT22;9102;53.548;9.926;2022-10-17T05:45:06;12.80;99.90
17954;DHT22;9102;53.548;9.926;2022-10-17T05:47:34;12.80;99.90
17954;DHT22;9102;53.548;9.926;2022-10-17T05:50:00;12.80;99.90
17954;DHT22;9102;53.548;9.926;2022-10-17T05:52:27;12.80;99.90
17954;DHT22;9102;53.548;9.926;2022-10-17T05:54:56;12.70;99.90
17954;DHT22;9102;53.548;9.926;2022-10-17T05:57:24;12.70;99.90
17954;DHT22;9102;53.548;9.926;2022-10-17T05:59:50;12.70;99.90
17954;DHT22;9102;53.548;9.926;2022-10-17T06:02:17;12.70;99.90
17954;DHT22;9102;53.548;9.926;2022-10-17T06:04:44;12.70;99.90
17954;DHT22;9102;53.548;9.926;2022-10-17T06:07:13;12.60;99.90
17954;DHT22;9102;53.548;9.926;2022-10-17T06:09:40;12.60;99.90
17954;DHT22;9102;53.548;9.926;2022-10-17T06:12:08;12.60;99.90
17954;DHT22;9102;53.548;9.926;2022-10-17T06:14:35;12.60;99.90
17954;DHT22;9102;53.548;9.926;2022-10-17T06:17:01;12.70;99.90
17954;DHT22;9102;53.548;9.926;2022-10-17T06:19:28;12.70;99.90
17954;DHT22;9102;53.548;9.926;2022-10-17T06:21:55;12.70;99.90
17954;DHT22;9102;53.548;9.926;2022-10-17T06:24:22;12.70;99.90
17954;DHT22;9102;53.548;9.926;2022-10-17T06:26:48;12.60;99.90
17954;DHT22;9102;53.548;9.926;2022-10-17T06:29:17;12.60;99.90
17954;DHT22;9102;53.548;9.926;2022-10-17T06:31:43;12.60;99.90
17954;DHT22;9102;53.548;9.926;2022-10-17T06:34:10;12.60;99.90
17954;DHT22;9102;53.548;9.926;2022-10-17T06:36:37;12.70;99.90
17954;DHT22;9102;53.548;9.926;2022-10-17T06:39:04;12.70;99.90
17954;DHT22;9102;53.548;9.926;2022-10-17T06:41:30;12.70;99.90
17954;DHT22;9102;53.548;9.926;2022-10-17T06:43:57;12.70;99.90
17954;DHT22;9102;53.548;9.926;2022-10-17T06:46:25;12.60;99.90
17954;DHT22;9102;53.548;9.926;2022-10-17T06:48:54;12.70;99.90
17954;DHT22;9102;53.548;9.926;2022-10-17T06:51:21;12.60;99.90
17954;DHT22;9102;53.548;9.926;2022-10-17T06:53:48;12.60;99.90
17954;DHT22;9102;53.548;9.926;2022-10-17T06:56:14;12.70;99.90
17954;DHT22;9102;53.548;9.926;2022-10-17T06:58:41;12.80;99.90
17954;DHT22;9102;53.548;9.926;2022-10-17T07:01:10;12.80;99.90
17954;DHT22;9102;53.548;9.926;2022-10-17T07:03:39;12.80;99.90
17954;DHT22;9102;53.548;9.926;2022-10-17T07:06:06;12.80;99.90
17954;DHT22;9102;53.548;9.926;2022-10-17T07:08:35;12.90;99.90
17954;DHT22;9102;53.548;9.926;2022-10-17T07:11:08;13.00;99.90
17954;DHT22;9102;53.548;9.926;2022-10-17T07:13:35;13.00;99.90
17954;DHT22;9102;53.548;9.926;2022-10-17T07:16:02;13.10;99.90
17954;DHT22;9102;53.548;9.926;2022-10-17T07:18:29;13.10;99.90
17954;DHT22;9102;53.548;9.926;2022-10-17T07:20:57;13.20;99.90
17954;DHT22;9102;53.548;9.926;2022-10-17T07:23:24;13.30;99.90
17954;DHT22;9102;53.548;9.926;2022-10-17T07:25:51;13.40;99.90
17954;DHT22;9102;53.548;9.926;2022-10-17T07:28:18;13.50;99.90
17954;DHT22;9102;53.548;9.926;2022-10-17T07:30:45;13.70;99.90
17954;DHT22;9102;53.548;9.926;2022-10-17T07:33:11;13.70;99.90
17954;DHT22;9102;53.548;9.926;2022-10-17T07:35:38;13.80;99.90
17954;DHT22;9102;53.548;9.926;2022-10-17T07:38:07;13.80;99.90
17954;DHT22;9102;53.548;9.926;2022-10-17T07:40:34;13.90;99.90
17954;DHT22;9102;53.548;9.926;2022-10-17T07:43:01;14.00;99.90
17954;DHT22;9102;53.548;9.926;2022-10-17T07:45:28;14.00;99.90
17954;DHT22;9102;53.548;9.926;2022-10-17T07:47:55;14.20;99.90
17954;DHT22;9102;53.548;9.926;2022-10-17T07:50:23;14.10;99.90
17954;DHT22;9102;53.548;9.926;2022-10-17T07:52:50;14.10;99.90
17954;DHT22;9102;53.548;9.926;2022-10-17T07:55:18;14.20;99.90
17954;DHT22;9102;53.548;9.926;2022-10-17T07:57:45;14.30;99.90
17954;DHT22;9102;53.548;9.926;2022-10-17T08:00:12;14.40;99.90
17954;DHT22;9102;53.548;9.926;2022-10-17T08:02:39;14.60;99.90
17954;DHT22;9102;53.548;9.926;2022-10-17T08:05:07;14.80;99.90
17954;DHT22;9102;53.548;9.926;2022-10-17T08:07:33;15.00;99.90
17954;DHT22;9102;53.548;9.926;2022-10-17T08:10:00;15.30;99.90
17954;DHT22;9102;53.548;9.926;2022-10-17T08:12:28;15.40;99.90
17954;DHT22;9102;53.548;9.926;2022-10-17T08:14:56;15.40;99.90
17954;DHT22;9102;53.548;9.926;2022-10-17T08:17:23;15.50;99.90
17954;DHT22;9102;53.548;9.926;2022-10-17T08:19:50;15.50;99.90
17954;DHT22;9102;53.548;9.926;2022-10-17T08:22:20;15.60;99.90
17954;DHT22;9102;53.548;9.926;2022-10-17T08:24:47;15.60;99.90
17954;DHT22;9102;53.548;9.926;2022-10-17T08:27:14;15.60;99.90
17954;DHT22;9102;53.548;9.926;2022-10-17T08:29:47;15.40;99.90
17954;DHT22;9102;53.548;9.926;2022-10-17T08:32:17;15.30;99.90
17954;DHT22;9102;53.548;9.926;2022-10-17T08:34:44;15.30;99.90
17954;DHT22;9102;53.548;9.926;2022-10-17T08:37:11;15.40;99.90
17954;DHT22;9102;53.548;9.926;2022-10-17T08:39:39;15.40;99.90
17954;DHT22;9102;53.548;9.926;2022-10-17T08:42:29;15.40;99.90
17954;DHT22;9102;53.548;9.926;2022-10-17T08:45:08;15.40;99.90
17954;DHT22;9102;53.548;9.926;2022-10-17T08:47:41;15.60;99.90
17954;DHT22;9102;53.548;9.926;2022-10-17T08:50:13;15.60;99.90
17954;DHT22;9102;53.548;9.926;2022-10-17T08:52:47;15.50;99.90
17954;DHT22;9102;53.548;9.926;2022-10-17T08:55:16;15.70;99.90
17954;DHT22;9102;53.548;9.926;2022-10-17T08:57:43;15.80;99.90
17954;DHT22;9102;53.548;9.926;2022-10-17T09:00:16;15.90;99.90
17954;DHT22;9102;53.548;9.926;2022-10-17T09:02:53;16.00;99.90
17954;DHT22;9102;53.548;9.926;2022-10-17T09:05:35;16.10;99.90
17954;DHT22;9102;53.548;9.926;2022-10-17T09:08:11;16.30;99.90
17954;DHT22;9102;53.548;9.926;2022-10-17T09:10:49;16.60;99.90
17954;DHT22;9102;53.548;9.926;2022-10-17T09:16:32;16.80;99.90
17954;DHT22;9102;53.548;9.926;2022-10-17T09:19:07;16.90;99.90
17954;DHT22;9102;53.548;9.926;2022-10-17T09:21:40;16.90;99.90
17954;DHT22;9102;53.548;9.926;2022-10-17T09:24:14;17.10;99.90
17954;DHT22;9102;53.548;9.926;2022-10-17T09:26:44;17.30;99.90
17954;DHT22;9102;53.548;9.926;2022-10-17T09:29:17;17.20;99.90
17954;DHT22;9102;53.548;9.926;2022-10-17T09:31:51;17.10;99.90
17954;DHT22;9102;53.548;9.926;2022-10-17T09:34:19;17.10;99.90
17954;DHT22;9102;53.548;9.926;2022-10-17T09:36:47;17.10;99.90
17954;DHT22;9102;53.548;9.926;2022-10-17T09:39:16;17.00;99.90
17954;DHT22;9102;53.548;9.926;2022-10-17T09:41:48;17.10;99.90
17954;DHT22;9102;53.548;9.926;2022-10-17T09:44:18;17.10;99.90
17954;DHT22;9102;53.548;9.926;2022-10-17T09:47:06;17.10;99.90
17954;DHT22;9102;53.548;9.926;2022-10-17T09:49:38;17.20;99.90
17954;DHT22;9102;53.548;9.926;2022-10-17T09:52:10;17.20;99.90
17954;DHT22;9102;53.548;9.926;2022-10-17T09:54:42;17.40;99.90
17954;DHT22;9102;53.548;9.926;2022-10-17T09:57:11;17.40;99.90
17954;DHT22;9102;53.548;9.926;2022-10-17T09:59:40;17.50;99.90
17954;DHT22;9102;53.548;9.926;2022-10-17T10:02:15;17.50;99.90
17954;DHT22;9102;53.548;9.926;2022-10-17T10:04:54;17.50;99.90
17954;DHT22;9102;53.548;9.926;2022-10-17T10:07:21;17.60;99.90
17954;DHT22;9102;53.548;9.926;2022-10-17T10:09:49;17.70;99.90
17954;DHT22;9102;53.548;9.926;2022-10-17T10:12:18;17.80;99.90
17954;DHT22;9102;53.548;9.926;2022-10-17T10:14:46;18.00;99.90
17954;DHT22;9102;53.548;9.926;2022-10-17T10:17:33;18.10;99.90
17954;DHT22;9102;53.548;9.926;2022-10-17T10:20:01;18.30;99.90
17954;DHT22;9102;53.548;9.926;2022-10-17T10:22:29;18.40;99.90
17954;DHT22;9102;53.548;9.926;2022-10-17T10:25:16;18.50;99.90
17954;DHT22;9102;53.548;9.926;2022-10-17T10:27:45;18.60;99.90
17954;DHT22;9102;53.548;9.926;2022-10-17T10:30:17;18.60;99.90
17954;DHT22;9102;53.548;9.926;2022-10-17T10:32:47;18.70;99.90
17954;DHT22;9102;53.548;9.926;2022-10-17T10:35:19;18.80;99.90
17954;DHT22;9102;53.548;9.926;2022-10-17T10:37:49;19.00;99.90
17954;DHT22;9102;53.548;9.926;2022-10-17T10:40:19;19.10;99.90
17954;DHT22;9102;53.548;9.926;2022-10-17T10:42:48;19.20;99.90
17954;DHT22;9102;53.548;9.926;2022-10-17T10:45:17;19.40;99.90
17954;DHT22;9102;53.548;9.926;2022-10-17T10:47:53;19.60;99.90
17954;DHT22;9102;53.548;9.926;2022-10-17T10:50:25;19.70;99.90
17954;DHT22;9102;53.548;9.926;2022-10-17T10:55:42;19.70;99.90
17954;DHT22;9102;53.548;9.926;2022-10-17T10:58:31;19.70;99.90
17954;DHT22;9102;53.548;9.926;2022-10-17T11:01:03;19.70;99.90
17954;DHT22;9102;53.548;9.926;2022-10-17T11:03:45;19.70;99.90
17954;DHT22;9102;53.548;9.926;2022-10-17T11:06:19;19.70;99.90
17954;DHT22;9102;53.548;9.926;2022-10-17T11:08:51;19.70;99.90
17954;DHT22;9102;53.548;9.926;2022-10-17T11:11:25;19.70;99.90
17954;DHT22;9102;53.548;9.926;2022-10-17T11:14:10;19.80;99.90
17954;DHT22;9102;53.548;9.926;2022-10-17T11:16:43;19.80;99.90
17954;DHT22;9102;53.548;9.926;2022-10-17T11:19:16;19.70;99.90
17954;DHT22;9102;53.548;9.926;2022-10-17T11:21:46;19.70;99.90
17954;DHT22;9102;53.548;9.926;2022-10-17T11:24:20;19.70;99.90
17954;DHT22;9102;53.548;9.926;2022-10-17T11:26:53;19.80;99.90
17954;DHT22;9102;53.548;9.926;2022-10-17T11:29:27;19.80;99.90
17954;DHT22;9102;53.548;9.926;2022-10-17T11:31:56;19.90;99.90
17954;DHT22;9102;53.548;9.926;2022-10-17T11:34:26;19.90;99.90
17954;DHT22;9102;53.548;9.926;2022-10-17T11:36:57;19.90;99.90
17954;DHT22;9102;53.548;9.926;2022-10-17T11:39:29;20.00;99.90
17954;DHT22;9102;53.548;9.926;2022-10-17T11:42:00;20.10;99.90
17954;DHT22;9102;53.548;9.926;2022-10-17T11:44:34;20.10;99.90
17954;DHT22;9102;53.548;9.926;2022-10-17T11:47:05;20.20;99.90
17954;DHT22;9102;53.548;9.926;2022-10-17T11:49:37;20.20;99.90
17954;DHT22;9102;53.548;9.926;2022-10-17T11:52:15;20.20;99.90
17954;DHT22;9102;53.548;9.926;2022-10-17T11:54:47;20.10;99.90
17954;DHT22;9102;53.548;9.926;2022-10-17T11:57:31;19.90;99.90
17954;DHT22;9102;53.548;9.926;2022-10-17T12:00:17;19.80;99.90
17954;DHT22;9102;53.548;9.926;2022-10-17T12:02:50;19.70;99.90
17954;DHT22;9102;53.548;9.926;2022-10-17T12:05:26;19.50;99.90
17954;DHT22;9102;53.548;9.926;2022-10-17T12:08:02;19.10;99.90
17954;DHT22;9102;53.548;9.926;2022-10-17T12:10:36;18.60;99.90
17954;DHT22;9102;53.548;9.926;2022-10-17T12:19:26;17.70;99.90
17954;DHT22;9102;53.548;9.926;2022-10-17T12:22:05;17.60;99.90
17954;DHT22;9102;53.548;9.926;2022-10-17T12:24:40;17.50;99.90
17954;DHT22;9102;53.548;9.926;2022-10-17T12:27:34;17.40;99.90
17954;DHT22;9102;53.548;9.926;2022-10-17T12:30:17;17.30;99.90
17954;DHT22;9102;53.548;9.926;2022-10-17T12:33:00;17.30;99.90
17954;DHT22;9102;53.548;9.926;2022-10-17T12:35:29;17.30;99.90
17954;DHT22;9102;53.548;9.926;2022-10-17T12:38:20;17.30;99.90
17954;DHT22;9102;53.548;9.926;2022-10-17T12:40:52;17.30;99.90
17954;DHT22;9102;53.548;9.926;2022-10-17T12:46:43;17.40;99.90
17954;DHT22;9102;53.548;9.926;2022-10-17T12:49:23;17.50;99.90
17954;DHT22;9102;53.548;9.926;2022-10-17T12:52:26;17.50;99.90
17954;DHT22;9102;53.548;9.926;2022-10-17T12:55:09;17.50;99.90
17954;DHT22;9102;53.548;9.926;2022-10-17T12:57:41;17.40;99.90
17954;DHT22;9102;53.548;9.926;2022-10-17T13:00:16;17.40;99.90
17954;DHT22;9102;53.548;9.926;2022-10-17T13:02:44;17.30;99.90
17954;DHT22;9102;53.548;9.926;2022-10-17T13:05:15;17.30;99.90
17954;DHT22;9102;53.548;9.926;2022-10-17T13:07:44;17.30;99.90
17954;DHT22;9102;53.548;9.926;2022-10-17T13:10:21;17.20;99.90
17954;DHT22;9102;53.548;9.926;2022-10-17T13:12:50;17.20;99.90
17954;DHT22;9102;53.548;9.926;2022-10-17T13:15:19;17.30;99.90
17954;DHT22;9102;53.548;9.926;2022-10-17T13:17:55;17.20;99.90
17954;DHT22;9102;53.548;9.926;2022-10-17T13:20:25;17.20;99.90
17954;DHT22;9102;53.548;9.926;2022-10-17T13:22:53;17.10;99.90
17954;DHT22;9102;53.548;9.926;2022-10-17T13:25:24;17.10;99.90
17954;DHT22;9102;53.548;9.926;2022-10-17T13:28:03;17.00;99.90
17954;DHT22;9102;53.548;9.926;2022-10-17T13:30:32;17.10;99.90
17954;DHT22;9102;53.548;9.926;2022-10-17T13:32:59;17.10;99.90
17954;DHT22;9102;53.548;9.926;2022-10-17T13:35:28;17.10;99.90
17954;DHT22;9102;53.548;9.926;2022-10-17T13:37:56;17.10;99.90
17954;DHT22;9102;53.548;9.926;2022-10-17T13:40:28;17.10;99.90
17954;DHT22;9102;53.548;9.926;2022-10-17T13:42:57;17.10;99.90
17954;DHT22;9102;53.548;9.926;2022-10-17T13:45:28;17.00;99.90
17954;DHT22;9102;53.548;9.926;2022-10-17T13:47:56;17.10;99.90
17954;DHT22;9102;53.548;9.926;2022-10-17T13:50:31;17.00;99.90
17954;DHT22;9102;53.548;9.926;2022-10-17T13:53:16;17.00;99.90
17954;DHT22;9102;53.548;9.926;2022-10-17T13:55:58;17.00;99.90
17954;DHT22;9102;53.548;9.926;2022-10-17T13:59:01;17.00;99.90
17954;DHT22;9102;53.548;9.926;2022-10-17T14:02:22;16.90;99.90
17954;DHT22;9102;53.548;9.926;2022-10-17T14:05:02;16.90;99.90
17954;DHT22;9102;53.548;9.926;2022-10-17T14:07:35;16.90;99.90
17954;DHT22;9102;53.548;9.926;2022-10-17T14:10:03;16.90;99.90
17954;DHT22;9102;53.548;9.926;2022-10-17T14:12:32;16.90;99.90
17954;DHT22;9102;53.548;9.926;2022-10-17T14:15:02;16.90;99.90
17954;DHT22;9102;53.548;9.926;2022-10-17T14:17:31;16.90;99.90
17954;DHT22;9102;53.548;9.926;2022-10-17T14:20:01;16.90;99.90
17954;DHT22;9102;53.548;9.926;2022-10-17T14:22:33;16.90;99.90
17954;DHT22;9102;53.548;9.926;2022-10-17T14:25:00;16.90;99.90
17954;DHT22;9102;53.548;9.926;2022-10-17T14:27:29;17.00;99.90
17954;DHT22;9102;53.548;9.926;2022-10-17T14:29:59;17.00;99.90
17954;DHT22;9102;53.548;9.926;2022-10-17T14:32:28;17.00;99.90
17954;DHT22;9102;53.548;9.926;2022-10-17T14:34:58;17.00;99.90
17954;DHT22;9102;53.548;9.926;2022-10-17T14:37:32;17.00;99.90
17954;DHT22;9102;53.548;9.926;2022-10-17T14:40:01;17.10;99.90
17954;DHT22;9102;53.548;9.926;2022-10-17T14:42:28;17.00;99.90
17954;DHT22;9102;53.548;9.926;2022-10-17T14:45:05;17.00;99.90
17954;DHT22;9102;53.548;9.926;2022-10-17T14:47:33;17.00;99.90
17954;DHT22;9102;53.548;9.926;2022-10-17T14:50:06;17.00;99.90
17954;DHT22;9102;53.548;9.926;2022-10-17T14:52:34;16.90;99.90
17954;DHT22;9102;53.548;9.926;2022-10-17T14:55:24;17.00;99.90
17954;DHT22;9102;53.548;9.926;2022-10-17T14:57:51;16.90;99.90
17954;DHT22;9102;53.548;9.926;2022-10-17T15:00:21;16.90;99.90
17954;DHT22;9102;53.548;9.926;2022-10-17T15:02:49;16.90;99.90
17954;DHT22;9102;53.548;9.926;2022-10-17T15:05:16;16.90;99.90
17954;DHT22;9102;53.548;9.926;2022-10-17T15:07:43;16.90;99.90
17954;DHT22;9102;53.548;9.926;2022-10-17T15:10:23;16.90;99.90
17954;DHT22;9102;53.548;9.926;2022-10-17T15:12:50;16.90;99.90
17954;DHT22;9102;53.548;9.926;2022-10-17T15:15:18;16.90;99.90
17954;DHT22;9102;53.548;9.926;2022-10-17T15:17:45;16.90;99.90
17954;DHT22;9102;53.548;9.926;2022-10-17T15:20:15;16.90;99.90
17954;DHT22;9102;53.548;9.926;2022-10-17T15:22:42;16.90;99.90
17954;DHT22;9102;53.548;9.926;2022-10-17T15:25:09;16.90;99.90
17954;DHT22;9102;53.548;9.926;2022-10-17T15:27:36;16.90;99.90
17954;DHT22;9102;53.548;9.926;2022-10-17T15:30:03;16.90;99.90
17954;DHT22;9102;53.548;9.926;2022-10-17T15:32:33;16.90;99.90
17954;DHT22;9102;53.548;9.926;2022-10-17T15:35:00;16.90;99.90
17954;DHT22;9102;53.548;9.926;2022-10-17T15:37:32;16.90;99.90
17954;DHT22;9102;53.548;9.926;2022-10-17T15:39:59;16.90;99.90
17954;DHT22;9102;53.548;9.926;2022-10-17T15:42:27;16.90;99.90
17954;DHT22;9102;53.548;9.926;2022-10-17T15:44:55;16.90;99.90
17954;DHT22;9102;53.548;9.926;2022-10-17T15:47:23;16.80;99.90
17954;DHT22;9102;53.548;9.926;2022-10-17T15:49:52;16.80;99.90
17954;DHT22;9102;53.548;9.926;2022-10-17T15:52:20;16.80;99.90
17954;DHT22;9102;53.548;9.926;2022-10-17T15:54:46;16.80;99.90
17954;DHT22;9102;53.548;9.926;2022-10-17T15:57:16;16.80;99.90
17954;DHT22;9102;53.548;9.926;2022-10-17T15:59:44;16.70;99.90
17954;DHT22;9102;53.548;9.926;2022-10-17T16:02:12;16.70;99.90
17954;DHT22;9102;53.548;9.926;2022-10-17T16:04:39;16.70;99.90
17954;DHT22;9102;53.548;9.926;2022-10-17T16:07:08;16.70;99.90
17954;DHT22;9102;53.548;9.926;2022-10-17T16:09:35;16.60;99.90
17954;DHT22;9102;53.548;9.926;2022-10-17T16:12:03;16.70;99.90
17954;DHT22;9102;53.548;9.926;2022-10-17T16:14:37;16.70;99.90
17954;DHT22;9102;53.548;9.926;2022-10-17T16:17:04;16.60;99.90
17954;DHT22;9102;53.548;9.926;2022-10-17T16:19:31;16.60;99.90
17954;DHT22;9102;53.548;9.926;2022-10-17T16:21:58;16.70;99.90
17954;DHT22;9102;53.548;9.926;2022-10-17T16:24:28;16.60;99.90